createdAt,value
2023-11-17T00:01:51.060Z,99987.35
2023-11-17T00:04:23.511Z,99987.53
2023-11-17T00:06:55.920Z,99975.49
2023-11-17T00:09:28.104Z,99990.86
2023-11-17T00:12:00.294Z,99985.11
2023-11-17T00:14:32.803Z,99990.14
2023-11-17T00:17:05.718Z,99998.90
2023-11-17T00:19:37.771Z,99999.17
2023-11-17T00:22:09.885Z,99986.03
2023-11-17T00:24:42.248Z,99995.30
2023-11-17T00:27:15.681Z,99988.77
2023-11-17T00:29:49.800Z,99993.31
2023-11-17T00:32:21.877Z,99995.41
2023-11-17T00:34:54.930Z,99995.83
2023-11-17T00:37:27.700Z,100000.04
2023-11-17T00:39:59.849Z,100004.55
2023-11-17T00:42:32.840Z,100001.58
2023-11-17T00:45:05.280Z,99994.77
2023-11-17T00:47:37.843Z,99997.93
2023-11-17T00:50:13.527Z,99996.19
2023-11-17T00:52:46.138Z,100001.56
2023-11-17T00:55:18.864Z,100003.38
2023-11-17T00:57:50.995Z,100002.75
2023-11-17T01:00:23.544Z,100002.92
2023-11-17T01:02:56.619Z,100007.00
2023-11-17T01:05:29.230Z,100006.44
2023-11-17T01:08:02.871Z,100008.86
2023-11-17T01:10:35.358Z,100009.60
2023-11-17T01:13:08.185Z,100011.95
2023-11-17T01:15:40.802Z,100014.77
2023-11-17T01:18:12.905Z,100015.61
2023-11-17T01:20:45.204Z,100011.06
2023-11-17T01:23:17.554Z,100014.27
2023-11-17T01:25:50.117Z,100008.86
2023-11-17T01:28:22.369Z,100006.97
2023-11-17T01:30:54.772Z,100019.52
2023-11-17T01:33:26.794Z,100013.50
2023-11-17T01:36:00.118Z,100014.04
2023-11-17T01:38:40.451Z,100015.44
2023-11-17T01:41:19.072Z,100016.90
2023-11-17T01:43:51.604Z,100020.89
2023-11-17T01:46:25.687Z,100019.27
2023-11-17T01:48:57.920Z,100014.36
2023-11-17T01:51:32.391Z,100014.14
2023-11-17T01:54:04.650Z,100014.78
2023-11-17T01:56:38.754Z,100012.23
2023-11-17T01:59:10.715Z,100016.90
2023-11-17T02:01:42.887Z,100011.20
2023-11-17T02:04:15.313Z,100011.02
2023-11-17T02:06:54.435Z,100014.19
2023-11-17T02:09:36.034Z,100016.77
2023-11-17T02:12:18.906Z,100001.92
2023-11-17T02:14:57.722Z,100013.41
2023-11-17T02:17:30.881Z,100017.24
2023-11-17T02:20:13.458Z,100017.29
2023-11-17T02:22:48.758Z,100018.14
2023-11-17T02:25:30.004Z,100020.69
2023-11-17T02:28:13.760Z,100022.39
2023-11-17T02:30:57.120Z,100038.69
2023-11-17T02:33:31.534Z,100038.25
2023-11-17T02:36:04.698Z,100042.52
2023-11-17T02:38:39.011Z,100045.78
2023-11-17T02:41:11.112Z,100042.25
2023-11-17T02:43:43.480Z,100045.70
2023-11-17T02:46:18.187Z,100036.89
2023-11-17T02:48:48.899Z,100053.09
2023-11-17T02:51:23.558Z,100056.42
2023-11-17T02:53:56.543Z,100060.13
2023-11-17T02:56:28.716Z,100055.64
2023-11-17T02:59:01.576Z,100059.20
2023-11-17T03:01:34.055Z,100062.31
2023-11-17T03:04:06.514Z,100063.29
2023-11-17T03:06:38.511Z,100062.77
2023-11-17T03:09:14.511Z,100060.30
2023-11-17T03:11:47.036Z,100058.58
2023-11-17T03:14:19.197Z,100045.69
2023-11-17T03:16:53.929Z,100057.99
2023-11-17T03:19:25.315Z,100057.55
2023-11-17T03:21:58.689Z,100064.33
2023-11-17T03:24:35.284Z,100067.52
2023-11-17T03:27:08.001Z,100065.55
2023-11-17T03:29:40.003Z,100064.75
2023-11-17T03:32:13.487Z,100066.16
2023-11-17T03:34:46.072Z,100067.52
2023-11-17T03:37:19.700Z,100065.66
2023-11-17T03:39:52.692Z,100067.80
2023-11-17T03:42:24.807Z,100067.27
2023-11-17T03:44:58.362Z,100072.11
2023-11-17T03:47:30.963Z,100076.41
2023-11-17T03:50:03.434Z,100079.39
2023-11-17T03:52:36.931Z,100081.45
2023-11-17T03:55:12.556Z,100080.16
2023-11-17T03:57:47.218Z,100079.70
2023-11-17T04:00:23.882Z,100080.01
2023-11-17T04:02:57.390Z,100060.27
2023-11-17T04:05:34.589Z,100080.65
2023-11-17T04:08:06.915Z,100081.92
2023-11-17T04:10:39.162Z,100082.41
2023-11-17T04:13:11.160Z,100088.80
2023-11-17T04:15:43.521Z,100089.36
2023-11-17T04:18:15.901Z,100084.61
2023-11-17T04:20:49.449Z,100090.17
2023-11-17T04:23:22.174Z,100085.96
2023-11-17T04:25:54.268Z,100091.88
2023-11-17T04:28:26.403Z,100086.50
2023-11-17T04:30:58.982Z,100089.25
2023-11-17T04:33:31.578Z,100093.63
2023-11-17T04:36:03.904Z,100095.10
2023-11-17T04:38:35.965Z,100099.15
2023-11-17T04:41:08.811Z,100102.39
2023-11-17T04:43:41.085Z,100100.38
2023-11-17T04:46:19.914Z,100100.20
2023-11-17T04:48:52.425Z,100104.37
2023-11-17T04:51:24.707Z,100106.77
2023-11-17T04:53:57.192Z,100106.20
2023-11-17T04:56:30.139Z,100110.44
2023-11-17T04:59:03.477Z,100110.63
2023-11-17T05:01:36.060Z,100115.70
2023-11-17T05:04:09.201Z,100120.26
2023-11-17T05:06:43.624Z,100116.36
2023-11-17T05:09:15.728Z,100099.94
2023-11-17T05:11:47.971Z,100110.83
2023-11-17T05:14:19.951Z,100113.08
2023-11-17T05:17:00.521Z,100113.77
2023-11-17T05:19:33.060Z,100115.30
2023-11-17T05:22:05.347Z,100120.25
2023-11-17T05:24:37.332Z,100116.91
2023-11-17T05:27:09.502Z,100117.88
2023-11-17T05:29:42.362Z,100119.98
2023-11-17T05:32:14.487Z,100124.00
2023-11-17T05:34:46.589Z,100126.20
2023-11-17T05:37:19.590Z,100131.17
2023-11-17T05:39:51.832Z,100134.27
2023-11-17T05:42:24.355Z,100144.20
2023-11-17T05:44:56.583Z,100146.91
2023-11-17T05:47:28.996Z,100154.27
2023-11-17T05:50:02.670Z,100151.26
2023-11-17T05:52:35.733Z,100153.30
2023-11-17T05:55:09.090Z,100153.91
2023-11-17T05:57:44.040Z,100155.42
2023-11-17T06:00:20.267Z,100154.98
2023-11-17T06:02:53.594Z,100154.12
2023-11-17T06:05:26.580Z,100161.17
2023-11-17T06:07:59.067Z,100161.77
2023-11-17T06:10:31.711Z,100164.59
2023-11-17T06:13:05.686Z,100170.56
2023-11-17T06:15:38.182Z,100169.43
2023-11-17T06:18:10.327Z,100174.09
2023-11-17T06:20:43.314Z,100170.75
2023-11-17T06:23:15.372Z,100171.09
2023-11-17T06:25:48.857Z,100177.96
2023-11-17T06:28:20.948Z,100185.45
2023-11-17T06:30:53.389Z,100183.48
2023-11-17T06:33:25.690Z,100188.34
2023-11-17T06:36:01.833Z,100186.53
2023-11-17T06:38:34.867Z,100191.98
2023-11-17T06:41:07.588Z,100192.30
2023-11-17T06:43:39.926Z,100193.36
2023-11-17T06:46:12.928Z,100194.70
2023-11-17T06:48:45.056Z,100198.99
2023-11-17T06:51:17.547Z,100207.91
2023-11-17T06:53:51.126Z,100209.36
2023-11-17T06:56:23.209Z,100204.31
2023-11-17T06:58:55.337Z,100211.23
2023-11-17T07:01:27.496Z,100210.69
2023-11-17T07:04:00.129Z,100206.56
2023-11-17T07:06:32.780Z,100204.97
2023-11-17T07:09:16.859Z,100203.86
2023-11-17T07:11:53.222Z,100201.61
2023-11-17T07:14:26.485Z,100227.51
2023-11-17T07:16:58.608Z,100237.45
2023-11-17T07:19:30.705Z,100240.27
2023-11-17T07:22:04.006Z,100243.09
2023-11-17T07:24:36.523Z,100245.48
2023-11-17T07:27:12.654Z,100248.13
2023-11-17T07:29:44.609Z,100245.48
2023-11-17T07:32:16.678Z,100253.02
2023-11-17T07:34:49.015Z,100253.13
2023-11-17T07:37:21.115Z,100245.02
2023-11-17T07:39:53.295Z,100239.65
2023-11-17T07:42:25.439Z,100255.65
2023-11-17T07:44:57.817Z,100254.59
2023-11-17T07:47:31.645Z,100256.80
2023-11-17T07:50:04.823Z,100256.48
2023-11-17T07:52:37.411Z,100259.70
2023-11-17T07:55:10.648Z,100253.88
2023-11-17T07:57:42.961Z,100254.33
2023-11-17T08:00:26.267Z,100249.79
2023-11-17T08:02:58.581Z,100252.20
2023-11-17T08:05:30.846Z,100241.80
2023-11-17T08:08:02.926Z,100261.31
2023-11-17T08:10:35.098Z,100262.89
2023-11-17T08:13:07.239Z,100266.74
2023-11-17T08:15:39.675Z,100268.52
2023-11-17T08:18:11.808Z,100274.48
2023-11-17T08:20:45.545Z,100262.69
2023-11-17T08:23:17.703Z,100276.73
2023-11-17T08:25:50.254Z,100280.85
2023-11-17T08:28:23.433Z,100282.73
2023-11-17T08:30:55.672Z,100283.66
2023-11-17T08:33:29.207Z,100288.80
2023-11-17T08:36:02.073Z,100285.10
2023-11-17T08:38:34.150Z,100289.70
2023-11-17T08:41:06.435Z,100289.20
2023-11-17T08:43:38.584Z,100290.75
2023-11-17T08:46:11.308Z,100296.41
2023-11-17T08:48:44.224Z,100301.48
2023-11-17T08:51:16.282Z,100302.66
2023-11-17T08:53:48.286Z,100298.46
2023-11-17T08:56:20.353Z,100316.02
2023-11-17T08:58:53.250Z,100309.17
2023-11-17T09:01:25.320Z,100329.73
2023-11-17T09:03:58.703Z,100329.96
2023-11-17T09:06:31.010Z,100336.36
2023-11-17T09:09:16.036Z,100333.54
2023-11-17T09:11:56.770Z,100347.55
2023-11-17T09:14:32.336Z,100351.08
2023-11-17T09:17:08.822Z,100354.98
2023-11-17T09:19:43.112Z,100355.47
2023-11-17T09:22:15.719Z,100356.94
2023-11-17T09:24:48.243Z,100361.56
2023-11-17T09:27:20.615Z,100364.65
2023-11-17T09:29:52.648Z,100366.16
2023-11-17T09:32:24.773Z,100364.29
2023-11-17T09:34:56.736Z,100363.39
2023-11-17T09:37:30.282Z,100366.61
2023-11-17T09:40:02.684Z,100364.05
2023-11-17T09:42:34.774Z,100359.00
2023-11-17T09:45:10.742Z,100361.94
2023-11-17T09:47:45.681Z,100357.39
2023-11-17T09:50:20.746Z,100362.30
2023-11-17T09:52:53.470Z,100346.38
2023-11-17T09:55:29.258Z,100362.09
2023-11-17T09:58:06.779Z,100361.84
2023-11-17T10:00:42.243Z,100362.42
2023-11-17T10:03:15.756Z,100357.71
2023-11-17T10:05:48.928Z,100353.14
2023-11-17T10:08:21.661Z,100363.35
2023-11-17T10:10:54.792Z,100369.98
2023-11-17T10:13:32.456Z,100371.10
2023-11-17T10:16:07.939Z,100356.02
2023-11-17T10:18:42.348Z,100375.77
2023-11-17T10:21:14.748Z,100375.86
2023-11-17T10:23:52.343Z,100378.56
2023-11-17T10:26:24.558Z,100383.23
2023-11-17T10:29:00.388Z,100380.27
2023-11-17T10:31:35.075Z,100379.89
2023-11-17T10:34:15.666Z,100380.54
2023-11-17T10:37:05.857Z,100375.29
2023-11-17T10:40:00.685Z,100365.62
2023-11-17T10:42:38.549Z,100376.04
2023-11-17T10:45:26.463Z,100373.95
2023-11-17T10:47:58.611Z,100376.58
2023-11-17T10:50:30.958Z,100378.11
2023-11-17T10:53:19.488Z,100376.75
2023-11-17T10:55:54.759Z,100380.78
2023-11-17T10:58:27.458Z,100374.61
2023-11-17T11:00:59.706Z,100362.17
2023-11-17T11:03:33.906Z,100385.42
2023-11-17T11:06:09.437Z,100382.23
2023-11-17T11:08:52.249Z,100384.33
2023-11-17T11:11:30.091Z,100386.24
2023-11-17T11:14:04.310Z,100385.18
2023-11-17T11:16:36.641Z,100366.77
2023-11-17T11:19:23.140Z,100383.13
2023-11-17T11:22:02.981Z,100382.06
2023-11-17T11:24:38.692Z,100386.66
2023-11-17T11:27:15.739Z,100391.73
2023-11-17T11:29:48.272Z,100388.58
2023-11-17T11:32:21.581Z,100394.39
2023-11-17T11:34:54.257Z,100402.79
2023-11-17T11:37:29.956Z,100403.91
2023-11-17T11:40:02.549Z,100405.29
2023-11-17T11:42:35.289Z,100406.58
2023-11-17T11:45:09.870Z,100400.58
2023-11-17T11:47:42.307Z,100384.74
2023-11-17T11:50:16.308Z,100392.25
2023-11-17T11:53:11.448Z,100379.80
2023-11-17T11:55:43.744Z,100396.16
2023-11-17T11:58:17.255Z,100399.04
2023-11-17T12:00:52.871Z,100393.34
2023-11-17T12:03:27.005Z,100406.19
2023-11-17T12:06:00.602Z,100409.45
2023-11-17T12:08:34.035Z,100411.55
2023-11-17T12:11:16.273Z,100411.94
2023-11-17T12:13:51.005Z,100403.45
2023-11-17T12:16:34.588Z,100406.19
2023-11-17T12:19:08.146Z,100395.48
2023-11-17T12:21:50.009Z,100398.08
2023-11-17T12:24:24.946Z,100405.94
2023-11-17T12:26:58.008Z,100397.09
2023-11-17T12:29:32.726Z,100411.02
2023-11-17T12:32:07.421Z,100410.86
2023-11-17T12:34:45.903Z,100417.20
2023-11-17T12:37:18.179Z,100410.46
2023-11-17T12:39:51.239Z,100422.19
2023-11-17T12:42:23.703Z,100419.87
2023-11-17T12:44:56.999Z,100416.46
2023-11-17T12:47:32.610Z,100416.52
2023-11-17T12:50:07.628Z,100415.83
2023-11-17T12:53:07.564Z,100417.18
2023-11-17T12:55:49.853Z,100412.98
2023-11-17T12:58:23.502Z,100415.25
2023-11-17T13:01:08.624Z,100407.46
2023-11-17T13:03:41.092Z,100408.89
2023-11-17T13:06:13.682Z,100398.36
2023-11-17T13:08:46.173Z,100419.85
2023-11-17T13:11:18.416Z,100420.02
2023-11-17T13:13:51.192Z,100417.58
2023-11-17T13:16:29.901Z,100421.31
2023-11-17T13:19:05.726Z,100402.05
2023-11-17T13:21:39.172Z,100420.53
2023-11-17T13:24:12.004Z,100417.52
2023-11-17T13:26:44.349Z,100418.39
2023-11-17T13:29:20.498Z,100422.62
2023-11-17T13:32:03.219Z,100420.16
2023-11-17T13:34:37.234Z,100418.43
2023-11-17T13:37:12.857Z,100422.63
2023-11-17T13:39:45.095Z,100421.32
2023-11-17T13:42:17.759Z,100424.72
2023-11-17T13:44:50.049Z,100412.66
2023-11-17T13:47:22.240Z,100427.47
2023-11-17T13:49:54.447Z,100431.20
2023-11-17T13:52:26.486Z,100433.14
2023-11-17T13:55:00.970Z,100431.42
2023-11-17T13:57:33.954Z,100436.26
2023-11-17T14:00:11.879Z,100431.44
2023-11-17T14:02:44.284Z,100434.09
2023-11-17T14:05:16.794Z,100435.67
2023-11-17T14:07:49.306Z,100435.09
2023-11-17T14:10:21.587Z,100436.15
2023-11-17T14:12:53.709Z,100433.91
2023-11-17T14:15:28.122Z,100439.31
2023-11-17T14:18:00.372Z,100440.76
2023-11-17T14:20:35.944Z,100441.97
2023-11-17T14:23:08.558Z,100448.05
2023-11-17T14:25:40.712Z,100450.31
2023-11-17T14:28:16.953Z,100452.41
2023-11-17T14:30:49.051Z,100460.04
2023-11-17T14:33:21.142Z,100449.17
2023-11-17T14:35:53.416Z,100462.39
2023-11-17T14:38:28.117Z,100464.80
2023-11-17T14:40:59.058Z,100467.79
2023-11-17T14:43:31.124Z,100471.35
2023-11-17T14:46:03.313Z,100476.33
2023-11-17T14:48:35.626Z,100476.69
2023-11-17T14:51:08.711Z,100478.45
2023-11-17T14:53:40.841Z,100467.31
2023-11-17T14:56:13.128Z,100480.23
2023-11-17T14:58:45.625Z,100477.52
2023-11-17T15:01:18.248Z,100485.72
2023-11-17T15:03:50.508Z,100474.77
2023-11-17T15:06:22.915Z,100489.77
2023-11-17T15:08:55.755Z,100492.27
2023-11-17T15:11:28.117Z,100494.52
2023-11-17T15:14:05.497Z,100495.34
2023-11-17T15:16:39.806Z,100498.80
2023-11-17T15:19:13.694Z,100501.19
2023-11-17T15:21:45.845Z,100503.21
2023-11-17T15:24:23.126Z,100491.42
2023-11-17T15:26:57.062Z,100507.30
2023-11-17T15:29:32.209Z,100480.98
2023-11-17T15:32:09.763Z,100501.70
2023-11-17T15:34:43.460Z,100517.46
2023-11-17T15:37:15.560Z,100519.11
2023-11-17T15:39:47.820Z,100509.15
2023-11-17T15:42:20.658Z,100524.71
2023-11-17T15:44:55.583Z,100516.92
2023-11-17T15:47:29.107Z,100530.29
2023-11-17T15:50:01.317Z,100530.48
2023-11-17T15:52:33.782Z,100529.38
2023-11-17T15:55:08.422Z,100530.07
2023-11-17T15:57:41.298Z,100536.59
2023-11-17T16:00:16.538Z,100536.73
2023-11-17T16:02:48.732Z,100522.50
2023-11-17T16:05:22.944Z,100542.36
2023-11-17T16:07:55.803Z,100551.10
2023-11-17T16:10:27.969Z,100548.52
2023-11-17T16:13:00.628Z,100545.67
2023-11-17T16:15:32.976Z,100545.77
2023-11-17T16:18:05.772Z,100545.59
2023-11-17T16:20:38.972Z,100545.80
2023-11-17T16:23:16.099Z,100552.52
2023-11-17T16:25:49.725Z,100554.70
2023-11-17T16:28:21.841Z,100546.65
2023-11-17T16:30:54.404Z,100560.51
2023-11-17T16:33:26.508Z,100560.80
2023-11-17T16:35:58.824Z,100563.78
2023-11-17T16:38:30.982Z,100561.69
2023-11-17T16:41:05.187Z,100559.94
2023-11-17T16:43:37.452Z,100560.55
2023-11-17T16:46:12.761Z,100559.06
2023-11-17T16:48:45.112Z,100563.89
2023-11-17T16:51:18.238Z,100565.45
2023-11-17T16:53:50.351Z,100570.58
2023-11-17T16:56:22.370Z,100573.10
2023-11-17T16:58:54.570Z,100577.36
2023-11-17T17:01:28.717Z,100573.92
2023-11-17T17:04:02.447Z,100574.95
2023-11-17T17:06:35.127Z,100577.98
2023-11-17T17:09:10.012Z,100576.04
2023-11-17T17:11:42.020Z,100580.90
2023-11-17T17:14:20.140Z,100580.42
2023-11-17T17:16:54.708Z,100578.70
2023-11-17T17:19:30.873Z,100579.23
2023-11-17T17:22:04.223Z,100577.41
2023-11-17T17:24:37.938Z,100578.64
2023-11-17T17:27:10.974Z,100583.63
2023-11-17T17:29:43.863Z,100574.54
2023-11-17T17:32:16.349Z,100592.39
2023-11-17T17:34:49.385Z,100588.48
2023-11-17T17:37:21.928Z,100589.36
2023-11-17T17:39:54.796Z,100590.23
2023-11-17T17:42:27.242Z,100590.08
2023-11-17T17:44:59.439Z,100592.56
2023-11-17T17:47:33.277Z,100589.86
2023-11-17T17:50:06.173Z,100577.22
2023-11-17T17:52:39.581Z,100591.42
2023-11-17T17:55:12.541Z,100597.20
2023-11-17T17:57:45.993Z,100597.94
2023-11-17T18:00:19.708Z,100599.21
2023-11-17T18:02:54.051Z,100601.25
2023-11-17T18:05:26.850Z,100609.35
2023-11-17T18:07:59.380Z,100603.33
2023-11-17T18:10:33.190Z,100604.63
2023-11-17T18:13:05.651Z,100606.87
2023-11-17T18:15:38.436Z,100605.85
2023-11-17T18:18:11.960Z,100607.91
2023-11-17T18:20:44.030Z,100621.08
2023-11-17T18:23:16.942Z,100625.61
2023-11-17T18:25:49.552Z,100627.73
2023-11-17T18:28:21.719Z,100627.41
2023-11-17T18:30:53.978Z,100626.36
2023-11-17T18:33:26.313Z,100621.85
2023-11-17T18:35:59.365Z,100629.80
2023-11-17T18:38:31.498Z,100633.24
2023-11-17T18:41:04.580Z,100632.16
2023-11-17T18:43:40.205Z,100630.16
2023-11-17T18:46:12.462Z,100628.81
2023-11-17T18:48:44.447Z,100625.02
2023-11-17T18:51:17.262Z,100628.17
2023-11-17T18:53:49.323Z,100623.29
2023-11-17T18:56:21.616Z,100622.63
2023-11-17T18:58:53.785Z,100622.06
2023-11-17T19:01:27.212Z,100621.48
2023-11-17T19:03:59.678Z,100621.42
2023-11-17T19:06:32.302Z,100623.45
2023-11-17T19:09:05.330Z,100625.91
2023-11-17T19:11:38.761Z,100625.64
2023-11-17T19:14:12.850Z,100630.45
2023-11-17T19:16:45.070Z,100627.02
2023-11-17T19:19:17.464Z,100624.62
2023-11-17T19:21:49.770Z,100628.20
2023-11-17T19:24:23.407Z,100625.76
2023-11-17T19:27:11.203Z,100632.52
2023-11-17T19:29:46.019Z,100632.00
2023-11-17T19:32:18.208Z,100634.96
2023-11-17T19:34:53.066Z,100630.94
2023-11-17T19:37:26.559Z,100639.70
2023-11-17T19:39:58.672Z,100641.14
2023-11-17T19:42:30.812Z,100641.83
2023-11-17T19:45:03.643Z,100645.86
2023-11-17T19:47:36.138Z,100638.99
2023-11-17T19:50:14.452Z,100639.04
2023-11-17T19:52:49.664Z,100630.92
2023-11-17T19:55:24.181Z,100634.59
2023-11-17T19:57:57.053Z,100635.60
2023-11-17T20:00:30.006Z,100639.04
2023-11-17T20:03:02.449Z,100636.55
2023-11-17T20:05:34.842Z,100638.16
2023-11-17T20:08:09.366Z,100638.48
2023-11-17T20:10:41.870Z,100637.33
2023-11-17T20:13:14.567Z,100637.61
2023-11-17T20:15:47.118Z,100639.50
2023-11-17T20:18:19.219Z,100638.56
2023-11-17T20:20:51.275Z,100639.98
2023-11-17T20:23:23.316Z,100637.73
2023-11-17T20:25:55.404Z,100645.13
2023-11-17T20:28:27.523Z,100636.67
2023-11-17T20:30:59.874Z,100649.60
2023-11-17T20:33:32.102Z,100645.96
2023-11-17T20:36:04.780Z,100657.92
2023-11-17T20:38:39.286Z,100660.67
2023-11-17T20:41:12.302Z,100658.77
2023-11-17T20:43:45.305Z,100662.25
2023-11-17T20:46:25.821Z,100661.70
2023-11-17T20:48:58.208Z,100663.61
2023-11-17T20:51:30.271Z,100665.91
2023-11-17T20:54:05.797Z,100666.34
2023-11-17T20:56:38.747Z,100668.30
2023-11-17T20:59:13.296Z,100671.08
2023-11-17T21:01:48.335Z,100667.69
2023-11-17T21:04:20.646Z,100668.98
2023-11-17T21:06:54.512Z,100671.92
2023-11-17T21:09:28.728Z,100675.98
2023-11-17T21:12:07.495Z,100676.45
2023-11-17T21:14:41.420Z,100677.41
2023-11-17T21:17:13.802Z,100682.75
2023-11-17T21:19:46.972Z,100687.60
2023-11-17T21:22:19.161Z,100690.16
2023-11-17T21:24:51.777Z,100678.88
2023-11-17T21:27:26.699Z,100696.39
2023-11-17T21:29:59.249Z,100699.02
2023-11-17T21:32:32.670Z,100703.11
2023-11-17T21:35:13.349Z,100710.34
2023-11-17T21:37:46.572Z,100713.73
2023-11-17T21:40:21.423Z,100717.23
2023-11-17T21:42:54.049Z,100727.79
2023-11-17T21:45:27.429Z,100729.77
2023-11-17T21:47:59.768Z,100732.55
2023-11-17T21:50:32.748Z,100746.86
2023-11-17T21:53:06.214Z,100748.48
2023-11-17T21:55:39.029Z,100750.39
2023-11-17T21:58:11.517Z,100756.88
2023-11-17T22:00:43.937Z,100757.02
2023-11-17T22:03:16.151Z,100763.76
2023-11-17T22:05:48.574Z,100770.73
2023-11-17T22:08:20.756Z,100772.95
2023-11-17T22:10:52.830Z,100775.70
2023-11-17T22:13:26.378Z,100777.15
2023-11-17T22:15:58.485Z,100782.77
2023-11-17T22:18:30.975Z,100788.83
2023-11-17T22:21:06.051Z,100794.54
2023-11-17T22:23:38.226Z,100795.39
2023-11-17T22:26:14.090Z,100783.77
2023-11-17T22:28:46.784Z,100803.44
2023-11-17T22:31:25.723Z,100807.67
2023-11-17T22:33:58.058Z,100812.86
2023-11-17T22:36:30.174Z,100815.56
2023-11-17T22:39:09.223Z,100816.96
2023-11-17T22:41:41.819Z,100820.48
2023-11-17T22:44:13.937Z,100822.87
2023-11-17T22:46:48.920Z,100828.67
2023-11-17T22:49:21.422Z,100831.96
2023-11-17T22:51:53.477Z,100837.20
2023-11-17T22:54:25.491Z,100843.52
2023-11-17T22:56:57.595Z,100846.86
2023-11-17T22:59:31.512Z,100849.17
2023-11-17T23:02:09.231Z,100852.79
2023-11-17T23:04:41.741Z,100856.43
2023-11-17T23:07:13.870Z,100859.28
2023-11-17T23:09:47.969Z,100854.55
2023-11-17T23:12:20.783Z,100860.17
2023-11-17T23:14:52.927Z,100865.55
2023-11-17T23:17:25.756Z,100866.95
2023-11-17T23:19:57.833Z,100880.27
2023-11-17T23:22:30.041Z,100876.85
2023-11-17T23:25:06.761Z,100880.07
2023-11-17T23:27:39.610Z,100878.80
2023-11-17T23:30:14.862Z,100880.38
2023-11-17T23:32:47.297Z,100880.41
2023-11-17T23:35:19.751Z,100889.90
2023-11-17T23:37:51.953Z,100873.22
2023-11-17T23:40:24.715Z,100892.77
2023-11-17T23:42:56.950Z,100894.71
2023-11-17T23:45:30.801Z,100891.08
2023-11-17T23:48:03.626Z,100894.73
2023-11-17T23:50:36.191Z,100885.60
2023-11-17T23:53:08.894Z,100900.20
2023-11-17T23:55:41.058Z,100896.48
2023-11-17T23:58:13.377Z,100878.80
